Time;durP1;ratioP1;P1;durP2;ratioP2;P2;SDS_P1;SDS_P2;PMS_P1;PMS_P2;Temp;Humidity;BMP_temperature;BMP_pressure;BME280_temperature;BME280_humidity;BME280_pressure;Samples;Min_cycle;Max_cycle;Signal;HPM_P1;HPM_P2
2024/03/15 00:00:36;;;;;;;4.50;2.55;;;13.60;99.90;;;;;;4984269;28;20089;-77
2024/03/15 00:03:04;;;;;;;14.65;2.65;;;13.60;99.90;;;;;;4968569;28;20408;-79
2024/03/15 00:05:30;;;;;;;2.15;1.83;;;13.50;99.90;;;;;;4987451;28;20397;-78
2024/03/15 00:07:55;;;;;;;3.58;2.00;;;13.50;99.90;;;;;;4968799;28;20077;-77
2024/03/15 00:10:22;;;;;;;2.80;2.45;;;13.60;99.90;;;;;;4983253;28;20485;-79
2024/03/15 00:12:49;;;;;;;3.85;2.55;;;13.50;99.90;;;;;;4966453;28;20387;-78
2024/03/15 00:15:15;;;;;;;4.07;2.55;;;13.50;99.90;;;;;;4971642;28;20038;-78
2024/03/15 00:17:42;;;;;;;3.75;2.20;;;13.50;99.90;;;;;;4967825;28;20038;-78
2024/03/15 00:20:08;;;;;;;4.70;2.63;;;13.40;99.90;;;;;;4979472;28;20026;-78
2024/03/15 00:22:34;;;;;;;7.20;3.22;;;13.40;99.90;;;;;;4968730;28;20492;-77
2024/03/15 00:25:00;;;;;;;6.13;2.78;;;13.40;99.90;;;;;;4970030;28;20711;-78
2024/03/15 00:27:26;;;;;;;6.57;3.35;;;13.40;99.90;;;;;;4987059;28;20299;-78
2024/03/15 00:29:51;;;;;;;4.15;2.83;;;13.50;99.90;;;;;;4974413;28;20113;-77
2024/03/15 00:32:17;;;;;;;6.32;3.28;;;13.40;99.90;;;;;;4956137;28;20038;-77
2024/03/15 00:34:42;;;;;;;5.80;3.42;;;13.40;99.90;;;;;;4944595;28;20037;-78
2024/03/15 00:37:08;;;;;;;5.10;2.78;;;13.40;99.90;;;;;;4975251;28;20061;-78
2024/03/15 00:39:34;;;;;;;5.68;2.55;;;13.40;99.90;;;;;;4990524;28;20077;-79
2024/03/15 00:41:59;;;;;;;5.32;2.83;;;13.40;99.90;;;;;;4992011;28;20471;-77
2024/03/15 00:44:25;;;;;;;3.35;2.53;;;13.40;99.90;;;;;;4968746;28;20054;-78
2024/03/15 00:46:51;;;;;;;5.45;2.80;;;13.40;99.90;;;;;;4987339;28;20857;-78
2024/03/15 00:49:17;;;;;;;4.93;2.53;;;13.40;99.90;;;;;;4984149;28;20117;-77
2024/03/15 00:51:42;;;;;;;4.20;2.63;;;13.40;99.90;;;;;;4984782;28;20048;-78
2024/03/15 00:54:09;;;;;;;6.75;3.15;;;13.30;99.90;;;;;;4990854;28;20047;-77
2024/03/15 00:56:36;;;;;;;4.68;3.20;;;13.40;99.90;;;;;;4972867;28;20069;-77
2024/03/15 00:59:01;;;;;;;3.05;2.65;;;13.40;99.90;;;;;;4991204;28;20086;-77
2024/03/15 01:01:27;;;;;;;3.97;2.03;;;13.40;99.90;;;;;;4981365;28;20031;-77
2024/03/15 01:03:52;;;;;;;7.85;2.05;;;13.30;99.90;;;;;;4976389;28;20034;-78
2024/03/15 01:06:18;;;;;;;4.82;2.65;;;13.30;99.90;;;;;;4976108;28;20033;-78
2024/03/15 01:08:43;;;;;;;4.35;2.67;;;13.40;99.90;;;;;;4957102;28;20026;-78
2024/03/15 01:11:09;;;;;;;4.03;2.42;;;13.30;99.90;;;;;;4972039;28;20035;-78
2024/03/15 01:13:35;;;;;;;5.20;2.70;;;13.30;99.90;;;;;;4986740;28;20045;-79
2024/03/15 01:16:01;;;;;;;4.00;2.30;;;13.30;99.90;;;;;;4967964;28;20034;-79
2024/03/15 01:18:27;;;;;;;3.97;2.53;;;13.30;99.90;;;;;;4973192;28;20034;-78
2024/03/15 01:20:53;;;;;;;4.63;2.58;;;13.20;99.90;;;;;;4976046;28;20030;-78
2024/03/15 01:23:18;;;;;;;10.27;3.08;;;13.30;99.90;;;;;;4951352;28;20488;-78
2024/03/15 01:25:45;;;;;;;3.95;2.33;;;13.30;99.90;;;;;;4955557;28;20088;-77
2024/03/15 01:28:11;;;;;;;6.18;2.80;;;13.20;99.90;;;;;;4983535;28;20038;-79
2024/03/15 01:30:37;;;;;;;6.28;2.70;;;13.20;99.90;;;;;;4967335;28;20046;-78
2024/03/15 01:33:02;;;;;;;9.98;3.00;;;13.20;99.90;;;;;;4988909;28;20515;-78
2024/03/15 01:35:32;;;;;;;5.32;2.30;;;13.20;99.90;;;;;;4984379;28;20392;-79
2024/03/15 01:37:59;;;;;;;2.95;2.42;;;13.20;99.90;;;;;;4956135;28;20521;-79
2024/03/15 01:40:25;;;;;;;4.32;3.03;;;13.20;99.90;;;;;;4972315;28;20057;-78
2024/03/15 01:42:52;;;;;;;3.33;1.98;;;13.30;99.90;;;;;;4974330;28;20481;-78
2024/03/15 01:45:18;;;;;;;5.88;2.95;;;13.30;99.90;;;;;;4984205;28;20061;-80
2024/03/15 01:47:43;;;;;;;4.13;2.55;;;13.30;99.90;;;;;;4951127;28;20499;-78
2024/03/15 01:50:09;;;;;;;5.32;1.98;;;13.30;99.90;;;;;;4970371;28;20407;-78
2024/03/15 01:52:35;;;;;;;3.55;2.45;;;13.30;99.90;;;;;;4980339;28;20410;-77
2024/03/15 01:55:01;;;;;;;3.53;3.00;;;13.30;99.90;;;;;;4993449;28;20041;-78
2024/03/15 01:57:27;;;;;;;9.68;4.20;;;13.30;99.90;;;;;;4991358;28;20038;-79
2024/03/15 01:59:52;;;;;;;2.53;2.00;;;13.40;99.90;;;;;;4989944;28;20421;-79
2024/03/15 02:02:19;;;;;;;5.13;2.58;;;13.40;99.90;;;;;;4986820;28;20034;-78
2024/03/15 02:04:53;;;;;;;6.75;3.45;;;13.30;99.90;;;;;;4982535;28;20033;-78
2024/03/15 02:07:22;;;;;;;3.30;2.28;;;13.30;99.90;;;;;;4980866;28;20058;-78
2024/03/15 02:09:48;;;;;;;4.25;2.10;;;13.30;99.90;;;;;;4979619;28;20428;-79
2024/03/15 02:12:14;;;;;;;4.68;2.28;;;13.30;99.90;;;;;;4986209;28;20480;-78
2024/03/15 02:14:40;;;;;;;3.95;2.25;;;13.30;99.90;;;;;;4966169;28;20096;-78
2024/03/15 02:17:06;;;;;;;6.85;3.30;;;13.30;99.90;;;;;;4977506;28;20383;-77
2024/03/15 02:19:32;;;;;;;3.20;2.45;;;13.30;99.90;;;;;;4977737;28;20026;-78
2024/03/15 02:21:57;;;;;;;5.60;2.17;;;13.20;99.90;;;;;;4984072;28;20037;-78
2024/03/15 02:24:23;;;;;;;4.32;2.50;;;13.20;99.90;;;;;;4983378;28;20026;-78
2024/03/15 02:26:48;;;;;;;4.78;2.33;;;13.30;99.90;;;;;;4971042;28;20034;-79
2024/03/15 02:29:16;;;;;;;8.70;2.75;;;13.20;99.90;;;;;;4988088;28;20033;-78
2024/03/15 02:31:46;;;;;;;4.13;2.10;;;13.20;99.90;;;;;;4955203;28;20041;-77
2024/03/15 02:34:13;;;;;;;4.95;2.42;;;13.20;99.90;;;;;;5007815;28;20045;-78
2024/03/15 02:36:40;;;;;;;7.55;2.45;;;13.20;99.90;;;;;;5004458;28;20030;-79
2024/03/15 02:39:07;;;;;;;3.92;2.35;;;13.20;99.90;;;;;;4981849;28;20041;-78
2024/03/15 02:41:33;;;;;;;6.80;2.70;;;13.20;99.90;;;;;;4981198;28;20031;-78
2024/03/15 02:43:59;;;;;;;3.95;2.30;;;13.20;99.90;;;;;;4989268;28;20076;-79
2024/03/15 02:46:25;;;;;;;3.97;2.47;;;13.10;99.90;;;;;;5006623;28;20034;-78
2024/03/15 02:48:51;;;;;;;3.20;1.88;;;13.20;99.90;;;;;;4976046;28;20094;-78
2024/03/15 02:51:16;;;;;;;5.43;2.47;;;13.20;99.90;;;;;;4967973;28;20042;-78
2024/03/15 02:53:43;;;;;;;4.07;2.38;;;13.20;99.90;;;;;;4967920;28;20027;-78
2024/03/15 02:56:09;;;;;;;4.90;2.30;;;13.10;99.90;;;;;;4971649;28;20034;-77
2024/03/15 02:58:36;;;;;;;6.78;3.13;;;13.10;99.90;;;;;;4966616;28;20180;-78
2024/03/15 03:01:01;;;;;;;3.90;2.20;;;13.10;99.90;;;;;;4968692;28;20030;-77
2024/03/15 03:03:27;;;;;;;5.68;2.63;;;13.10;99.90;;;;;;4967747;28;20063;-79
2024/03/15 03:05:52;;;;;;;4.38;2.42;;;13.10;99.90;;;;;;4950850;28;20046;-78
2024/03/15 03:08:18;;;;;;;6.43;2.45;;;13.10;99.90;;;;;;4982378;28;20126;-78
2024/03/15 03:10:44;;;;;;;5.05;2.42;;;13.10;99.90;;;;;;4982464;28;20109;-77
2024/03/15 03:13:09;;;;;;;5.07;2.15;;;13.10;99.90;;;;;;4964792;28;20113;-77
2024/03/15 03:15:35;;;;;;;3.78;2.08;;;13.10;99.90;;;;;;4949720;28;20037;-78
2024/03/15 03:18:01;;;;;;;4.72;2.22;;;13.10;99.90;;;;;;4969712;28;20073;-78
2024/03/15 03:20:33;;;;;;;6.05;2.35;;;13.10;99.90;;;;;;4985440;28;20045;-78
2024/03/15 03:23:00;;;;;;;4.07;2.05;;;13.10;99.90;;;;;;4962586;28;20514;-78
2024/03/15 03:25:26;;;;;;;5.53;2.22;;;13.10;99.90;;;;;;4982242;28;20104;-77
2024/03/15 03:27:51;;;;;;;5.82;2.17;;;13.10;99.90;;;;;;4972448;28;20027;-77
2024/03/15 03:30:17;;;;;;;3.17;2.35;;;13.10;99.90;;;;;;4981662;28;20034;-78
2024/03/15 03:32:43;;;;;;;5.93;3.13;;;13.10;99.90;;;;;;4980652;28;20509;-78
2024/03/15 03:35:08;;;;;;;3.20;2.15;;;13.00;99.90;;;;;;4966888;28;20085;-79
2024/03/15 03:37:34;;;;;;;8.48;2.45;;;13.00;99.90;;;;;;4979093;28;20022;-78
2024/03/15 03:40:00;;;;;;;10.73;2.60;;;13.10;99.90;;;;;;4967408;28;20069;-77
2024/03/15 03:42:26;;;;;;;6.18;2.53;;;13.00;99.90;;;;;;4967136;28;20026;-81
2024/03/15 03:44:51;;;;;;;5.30;2.55;;;13.00;99.90;;;;;;4951777;28;20484;-80
2024/03/15 03:47:17;;;;;;;5.82;3.47;;;13.00;99.90;;;;;;4969963;28;20049;-78
2024/03/15 03:49:42;;;;;;;7.25;2.28;;;13.00;99.90;;;;;;4965120;28;20129;-78
2024/03/15 03:52:08;;;;;;;7.70;3.20;;;13.00;99.90;;;;;;4972848;28;20031;-78
2024/03/15 03:54:34;;;;;;;5.35;2.17;;;13.00;99.90;;;;;;4963463;28;20034;-78
2024/03/15 03:57:00;;;;;;;4.80;2.65;;;13.00;99.90;;;;;;4967039;28;20037;-78
2024/03/15 03:59:28;;;;;;;5.72;2.22;;;13.00;99.90;;;;;;4969971;28;20675;-79
2024/03/15 04:01:54;;;;;;;5.72;2.50;;;13.00;99.90;;;;;;4967868;28;20065;-77
2024/03/15 04:04:21;;;;;;;8.38;2.78;;;13.10;99.90;;;;;;4985281;28;20440;-77
2024/03/15 04:06:51;;;;;;;4.05;2.60;;;13.10;99.90;;;;;;4953650;28;20447;-78
2024/03/15 04:09:17;;;;;;;1.83;1.63;;;13.00;99.90;;;;;;4952657;28;20121;-77
2024/03/15 04:11:42;;;;;;;5.60;2.75;;;13.10;99.90;;;;;;4947815;28;20073;-78
2024/03/15 04:14:10;;;;;;;4.28;1.67;;;13.00;99.90;;;;;;4954278;28;20065;-78
2024/03/15 04:16:36;;;;;;;2.58;1.85;;;13.00;99.90;;;;;;4979601;28;20069;-78
2024/03/15 04:19:03;;;;;;;3.10;2.45;;;13.10;99.90;;;;;;4952061;28;20062;-78
2024/03/15 04:21:28;;;;;;;4.55;2.75;;;13.10;99.90;;;;;;4982354;28;20033;-80
2024/03/15 04:23:55;;;;;;;3.35;1.63;;;13.10;99.90;;;;;;4948017;28;20027;-78
2024/03/15 04:26:21;;;;;;;5.38;2.55;;;13.10;99.90;;;;;;4982861;28;20089;-78
2024/03/15 04:28:49;;;;;;;3.25;2.30;;;13.10;99.90;;;;;;4952159;28;20120;-78
2024/03/15 04:31:16;;;;;;;5.28;1.73;;;13.10;99.90;;;;;;4979674;28;20030;-78
2024/03/15 04:33:42;;;;;;;6.25;3.38;;;13.10;99.90;;;;;;4958829;28;20039;-79
2024/03/15 04:36:07;;;;;;;3.45;2.50;;;13.10;99.90;;;;;;4984452;28;20551;-78
2024/03/15 04:38:33;;;;;;;3.10;1.95;;;13.10;99.90;;;;;;4966705;28;20049;-79
2024/03/15 04:41:09;;;;;;;5.50;2.33;;;13.10;99.90;;;;;;4985403;28;20126;-78
2024/03/15 04:43:37;;;;;;;7.07;2.42;;;13.10;99.90;;;;;;4966105;28;20038;-78
2024/03/15 04:46:03;;;;;;;8.43;2.45;;;13.10;99.90;;;;;;4950691;28;20034;-78
2024/03/15 04:48:30;;;;;;;4.25;2.22;;;13.10;99.90;;;;;;4968152;28;20034;-78
2024/03/15 04:50:55;;;;;;;5.53;2.45;;;13.10;99.90;;;;;;4978112;28;20516;-78
2024/03/15 04:53:21;;;;;;;3.33;2.17;;;13.10;99.90;;;;;;4967502;28;20038;-78
2024/03/15 04:55:46;;;;;;;7.50;2.10;;;13.10;99.90;;;;;;4970720;28;20180;-78
2024/03/15 04:58:12;;;;;;;5.18;2.55;;;13.20;99.90;;;;;;4967074;28;20081;-78
2024/03/15 05:00:38;;;;;;;3.50;1.88;;;13.10;99.90;;;;;;4981219;28;20066;-78
2024/03/15 05:03:06;;;;;;;4.00;2.25;;;13.10;99.90;;;;;;4961348;28;20038;-78
2024/03/15 05:05:32;;;;;;;7.25;2.80;;;13.00;99.90;;;;;;4977346;28;20040;-78
2024/03/15 05:07:57;;;;;;;5.53;2.17;;;13.00;99.90;;;;;;4967704;28;20141;-77
2024/03/15 05:10:23;;;;;;;3.83;2.25;;;13.10;99.90;;;;;;4952572;28;20093;-79
2024/03/15 05:12:49;;;;;;;2.28;1.30;;;13.10;99.90;;;;;;4981845;28;20026;-78
2024/03/15 05:15:15;;;;;;;3.90;1.85;;;13.10;99.90;;;;;;4965382;28;20361;-78
2024/03/15 05:17:41;;;;;;;5.65;2.53;;;13.10;99.90;;;;;;4988069;28;20070;-78
2024/03/15 05:20:12;;;;;;;5.00;2.60;;;13.10;99.90;;;;;;4972707;28;20046;-78
2024/03/15 05:22:39;;;;;;;7.15;2.70;;;13.10;99.90;;;;;;4982507;28;20114;-77
2024/03/15 05:25:09;;;;;;;4.50;2.90;;;13.10;99.90;;;;;;4968414;28;20038;-78
2024/03/15 05:27:35;;;;;;;2.92;2.15;;;13.10;99.90;;;;;;4972214;28;20072;-77
2024/03/15 05:30:00;;;;;;;3.78;1.90;;;13.10;99.90;;;;;;4953013;28;20038;-78
2024/03/15 05:32:29;;;;;;;5.40;1.80;;;13.10;99.90;;;;;;4969607;28;20560;-77
2024/03/15 05:34:54;;;;;;;7.22;2.60;;;13.10;99.90;;;;;;4968954;28;20046;-78
2024/03/15 05:37:20;;;;;;;4.50;2.25;;;13.10;99.90;;;;;;4968709;28;20443;-78
2024/03/15 05:39:46;;;;;;;3.97;1.60;;;13.10;99.90;;;;;;4969214;28;20042;-77
2024/03/15 05:42:12;;;;;;;2.00;1.42;;;13.00;99.90;;;;;;4969742;28;20037;-77
2024/03/15 05:44:37;;;;;;;2.97;2.30;;;13.00;99.90;;;;;;4969690;28;20026;-79
2024/03/15 05:47:03;;;;;;;4.07;2.00;;;13.00;99.90;;;;;;4954744;28;20035;-76
2024/03/15 05:49:29;;;;;;;2.28;0.98;;;13.00;99.90;;;;;;4950734;28;20034;-77
2024/03/15 05:51:54;;;;;;;3.70;1.70;;;13.00;99.90;;;;;;4970817;28;20437;-78
2024/03/15 05:54:20;;;;;;;3.58;1.70;;;12.90;99.90;;;;;;4969699;28;20137;-77
2024/03/15 05:56:45;;;;;;;4.53;2.33;;;12.90;99.90;;;;;;4968156;28;20057;-77
2024/03/15 05:59:13;;;;;;;2.97;1.75;;;12.90;99.90;;;;;;4988541;28;20030;-78
2024/03/15 06:01:39;;;;;;;4.28;1.33;;;12.90;99.90;;;;;;4981649;28;20026;-76
2024/03/15 06:04:05;;;;;;;4.00;1.95;;;12.90;99.90;;;;;;4957035;28;20029;-77
2024/03/15 06:06:33;;;;;;;6.07;2.72;;;12.90;99.90;;;;;;4984491;28;20250;-79
2024/03/15 06:09:00;;;;;;;4.30;1.90;;;12.90;99.90;;;;;;4966043;28;20039;-77
2024/03/15 06:11:25;;;;;;;4.45;2.40;;;12.80;99.90;;;;;;4952418;28;20122;-77
2024/03/15 06:13:53;;;;;;;4.93;2.58;;;12.80;99.90;;;;;;4964364;28;20484;-77
2024/03/15 06:16:25;;;;;;;3.97;2.10;;;12.80;99.90;;;;;;4962737;28;20129;-77
2024/03/15 06:18:51;;;;;;;1.17;1.08;;;12.80;99.90;;;;;;4957387;28;20038;-77
2024/03/15 06:21:17;;;;;;;3.05;1.65;;;12.80;99.90;;;;;;4967203;28;20502;-77
2024/03/15 06:23:43;;;;;;;7.40;2.25;;;12.80;99.90;;;;;;4983096;28;20042;-78
2024/03/15 06:26:09;;;;;;;7.40;2.35;;;12.80;99.90;;;;;;4966597;28;20038;-77
2024/03/15 06:28:37;;;;;;;4.07;2.28;;;12.80;99.90;;;;;;4981664;28;20356;-78
2024/03/15 06:31:04;;;;;;;4.47;2.78;;;12.80;99.90;;;;;;4970790;28;20435;-78
2024/03/15 06:33:33;;;;;;;5.00;2.60;;;12.80;99.90;;;;;;4953918;28;20034;-77
2024/03/15 06:36:00;;;;;;;7.20;2.85;;;12.80;99.90;;;;;;4953875;28;20058;-78
2024/03/15 06:44:06;;;;;;;5.32;2.80;;;12.90;99.90;;;;;;4970730;28;20037;-78
2024/03/15 06:46:52;;;;;;;4.03;2.30;;;12.90;99.90;;;;;;4960920;28;20035;-77
2024/03/15 06:49:24;;;;;;;5.22;2.30;;;12.90;99.90;;;;;;4982386;28;20060;-77
2024/03/15 06:54:34;;;;;;;6.43;2.40;;;12.90;99.90;;;;;;4986426;28;20049;-76
2024/03/15 06:56:59;;;;;;;5.28;2.50;;;12.90;99.90;;;;;;4970842;28;20027;-76
2024/03/15 06:59:25;;;;;;;4.65;2.38;;;13.00;99.90;;;;;;4963895;28;20043;-76
2024/03/15 07:01:52;;;;;;;5.07;2.35;;;13.00;99.90;;;;;;4968471;28;20051;-81
2024/03/15 07:04:18;;;;;;;4.75;2.53;;;13.00;99.90;;;;;;4985820;28;20569;-81
2024/03/15 07:06:44;;;;;;;7.50;3.20;;;13.00;99.90;;;;;;4980556;28;20027;-81
2024/03/15 07:09:14;;;;;;;10.60;3.00;;;13.00;99.90;;;;;;4970907;28;20499;-80
2024/03/15 07:11:41;;;;;;;4.72;2.78;;;13.10;99.90;;;;;;4972847;28;20399;-80
2024/03/15 07:14:08;;;;;;;2.72;1.90;;;13.10;99.90;;;;;;4971900;28;20038;-81
2024/03/15 07:16:35;;;;;;;3.72;2.60;;;13.10;99.90;;;;;;4981849;28;20479;-81
2024/03/15 07:19:01;;;;;;;4.80;2.72;;;13.20;99.90;;;;;;4968009;28;20503;-81
2024/03/15 07:21:27;;;;;;;8.68;3.10;;;13.20;99.90;;;;;;4959908;28;20066;-80
2024/03/15 07:23:52;;;;;;;3.22;1.92;;;13.20;99.90;;;;;;4939384;28;21350;-81
2024/03/15 07:26:18;;;;;;;6.57;2.83;;;13.20;99.90;;;;;;4984969;28;20411;-81
2024/03/15 07:28:47;;;;;;;5.57;2.80;;;13.10;99.90;;;;;;4955418;28;20173;-81
2024/03/15 07:31:13;;;;;;;3.50;2.30;;;13.30;99.90;;;;;;4985178;28;20034;-80
2024/03/15 07:33:39;;;;;;;5.43;2.90;;;13.30;99.90;;;;;;4970466;28;20029;-80
2024/03/15 07:36:06;;;;;;;5.35;3.08;;;13.30;99.90;;;;;;4966951;28;20052;-81
2024/03/15 07:38:31;;;;;;;6.32;2.33;;;13.30;99.90;;;;;;4965681;28;20045;-81
2024/03/15 07:40:57;;;;;;;6.35;2.20;;;13.30;99.90;;;;;;4980312;28;20038;-81
2024/03/15 07:43:23;;;;;;;4.95;2.65;;;13.30;99.90;;;;;;4965856;28;20030;-80
2024/03/15 07:45:51;;;;;;;6.63;2.65;;;13.30;99.90;;;;;;4985128;28;20038;-80
2024/03/15 07:48:16;;;;;;;4.30;2.83;;;13.30;99.90;;;;;;4975475;28;20035;-80
2024/03/15 07:50:42;;;;;;;10.32;3.03;;;13.30;99.90;;;;;;4969816;28;20044;-80
2024/03/15 07:53:08;;;;;;;5.47;1.55;;;13.30;99.90;;;;;;4994272;28;20380;-78
2024/03/15 07:55:35;;;;;;;4.60;2.95;;;13.30;99.90;;;;;;5006081;28;20025;-77
2024/03/15 07:58:02;;;;;;;11.50;3.72;;;13.30;99.90;;;;;;5002484;28;20038;-77
2024/03/15 08:00:32;;;;;;;8.18;2.83;;;13.30;99.90;;;;;;5001252;28;20761;-78
2024/03/15 08:02:57;;;;;;;8.02;2.80;;;13.20;99.90;;;;;;5002348;28;20094;-77
2024/03/15 08:05:26;;;;;;;5.80;3.25;;;13.20;99.90;;;;;;5004854;28;20382;-78
2024/03/15 08:07:51;;;;;;;7.15;3.45;;;13.20;99.90;;;;;;4979305;28;20076;-78
2024/03/15 08:10:17;;;;;;;8.50;3.03;;;13.20;99.90;;;;;;4981215;28;20044;-78
2024/03/15 08:12:43;;;;;;;6.30;3.03;;;13.20;99.90;;;;;;4950720;28;20607;-78
2024/03/15 08:15:09;;;;;;;9.90;3.63;;;13.30;99.90;;;;;;4965138;28;20117;-78
2024/03/15 08:17:36;;;;;;;4.38;2.85;;;13.30;99.90;;;;;;4967237;28;20038;-78
2024/03/15 08:20:05;;;;;;;9.07;3.65;;;13.30;99.90;;;;;;4966814;28;20031;-77
2024/03/15 08:22:32;;;;;;;2.88;1.55;;;13.30;99.90;;;;;;4982878;28;20062;-77
2024/03/15 08:24:58;;;;;;;7.93;2.80;;;13.40;99.90;;;;;;4966127;28;20145;-77
2024/03/15 08:27:27;;;;;;;4.35;2.58;;;13.30;99.90;;;;;;4968692;28;20118;-78
2024/03/15 08:29:54;;;;;;;5.80;3.50;;;13.30;99.90;;;;;;4964480;28;20039;-78
2024/03/15 08:32:20;;;;;;;8.18;2.83;;;13.40;99.90;;;;;;4981763;28;20703;-78
2024/03/15 08:34:47;;;;;;;9.60;3.67;;;13.40;99.90;;;;;;4969132;28;20033;-78
2024/03/15 08:37:13;;;;;;;6.10;2.90;;;13.50;99.90;;;;;;4949569;28;20139;-78
2024/03/15 08:39:39;;;;;;;6.40;2.92;;;13.40;99.90;;;;;;4977384;28;20042;-78
2024/03/15 08:42:05;;;;;;;6.63;2.92;;;13.40;99.90;;;;;;4963480;28;20038;-78
2024/03/15 08:44:32;;;;;;;4.47;2.60;;;13.50;99.90;;;;;;4976126;28;20451;-78
2024/03/15 08:46:57;;;;;;;3.95;2.72;;;13.60;99.90;;;;;;4957378;28;20046;-78
2024/03/15 08:49:26;;;;;;;4.50;3.92;;;13.60;99.90;;;;;;4943112;28;20076;-78
2024/03/15 08:51:51;;;;;;;3.47;2.80;;;13.60;99.90;;;;;;4969353;28;20637;-78
2024/03/15 08:54:18;;;;;;;9.43;2.53;;;13.50;99.90;;;;;;4956660;28;20038;-78
2024/03/15 08:56:44;;;;;;;5.82;3.10;;;13.60;99.90;;;;;;4965826;28;20376;-78
2024/03/15 08:59:10;;;;;;;7.85;3.03;;;13.60;99.90;;;;;;4951072;28;20035;-77
2024/03/15 09:01:36;;;;;;;5.30;3.03;;;13.70;99.90;;;;;;4979576;28;20030;-78
2024/03/15 09:04:04;;;;;;;5.95;3.17;;;13.80;99.90;;;;;;4966156;28;20105;-78
2024/03/15 09:06:33;;;;;;;6.38;2.85;;;13.80;99.90;;;;;;4976643;28;20510;-77
2024/03/15 09:09:07;;;;;;;4.32;2.72;;;13.80;99.90;;;;;;4985171;28;20049;-78
2024/03/15 09:11:39;;;;;;;6.32;3.42;;;13.70;99.90;;;;;;4970277;28;20038;-78
2024/03/15 09:14:08;;;;;;;5.15;2.92;;;13.80;99.90;;;;;;4979419;28;20788;-78
2024/03/15 09:16:37;;;;;;;5.57;1.98;;;13.90;99.90;;;;;;4984648;28;20396;-78
2024/03/15 09:19:03;;;;;;;8.02;3.30;;;13.80;99.90;;;;;;4965520;28;20395;-77
2024/03/15 09:21:30;;;;;;;4.78;3.72;;;13.80;99.90;;;;;;4976831;28;20037;-78
2024/03/15 09:23:57;;;;;;;8.80;3.10;;;13.80;99.90;;;;;;4997126;28;20085;-78
2024/03/15 09:26:24;;;;;;;7.70;3.40;;;13.90;99.90;;;;;;4967147;28;20035;-78
2024/03/15 09:28:49;;;;;;;4.03;2.90;;;14.10;99.90;;;;;;4954701;28;20105;-78
2024/03/15 09:31:15;;;;;;;8.98;3.42;;;14.00;99.90;;;;;;4998290;28;20052;-78
2024/03/15 09:33:43;;;;;;;2.35;1.40;;;14.20;99.90;;;;;;4989110;28;20033;-78
2024/03/15 09:36:16;;;;;;;5.55;3.30;;;14.30;99.90;;;;;;4973222;28;20460;-78
2024/03/15 09:38:45;;;;;;;4.85;3.25;;;14.20;99.90;;;;;;4988545;28;20037;-77
2024/03/15 09:41:12;;;;;;;7.20;3.45;;;14.30;99.90;;;;;;4970395;28;20030;-78
2024/03/15 09:43:39;;;;;;;8.75;3.65;;;14.40;99.90;;;;;;4986117;28;20111;-78
2024/03/15 09:46:13;;;;;;;8.00;2.97;;;14.60;99.90;;;;;;4959893;28;20076;-78
2024/03/15 09:48:39;;;;;;;8.27;3.60;;;14.60;99.90;;;;;;4954219;28;20042;-78
2024/03/15 09:51:05;;;;;;;6.68;3.33;;;14.70;99.90;;;;;;4985665;28;20112;-78
2024/03/15 09:53:31;;;;;;;4.75;2.83;;;14.90;99.90;;;;;;4968375;28;20045;-78
2024/03/15 09:55:57;;;;;;;5.88;3.10;;;15.00;99.90;;;;;;4950224;28;20496;-78
2024/03/15 09:58:23;;;;;;;5.40;2.55;;;15.10;99.90;;;;;;4957901;28;20081;-78
2024/03/15 10:00:48;;;;;;;4.95;2.65;;;15.20;99.90;;;;;;4985237;28;20519;-80
2024/03/15 10:03:14;;;;;;;7.00;2.70;;;15.20;99.90;;;;;;4967470;28;20027;-80
2024/03/15 10:05:40;;;;;;;5.53;3.67;;;15.00;99.90;;;;;;4964904;28;20043;-80
2024/03/15 10:08:05;;;;;;;2.65;1.55;;;15.20;99.90;;;;;;4985826;28;20034;-79
2024/03/15 10:10:32;;;;;;;7.72;2.72;;;15.10;99.90;;;;;;4948674;28;20650;-80
2024/03/15 10:12:58;;;;;;;9.77;3.55;;;15.20;99.90;;;;;;4967511;28;20034;-80
2024/03/15 10:15:25;;;;;;;3.92;1.77;;;15.30;99.90;;;;;;4969779;28;20034;-80
2024/03/15 10:17:54;;;;;;;4.65;3.17;;;15.30;99.90;;;;;;4971331;28;20042;-80
2024/03/15 10:20:22;;;;;;;6.07;3.33;;;15.50;99.90;;;;;;4968747;28;20377;-80
2024/03/15 10:22:51;;;;;;;7.63;2.65;;;15.60;99.90;;;;;;4975664;28;20029;-80
2024/03/15 10:25:18;;;;;;;5.88;2.70;;;15.50;99.90;;;;;;4966630;28;20033;-79
2024/03/15 10:27:45;;;;;;;4.50;2.60;;;15.70;99.90;;;;;;4984931;28;20752;-80
2024/03/15 10:30:15;;;;;;;6.32;3.17;;;15.90;99.90;;;;;;4968773;28;20507;-79
2024/03/15 10:32:41;;;;;;;5.38;2.55;;;15.90;99.90;;;;;;4961775;28;20045;-79
2024/03/15 10:35:21;;;;;;;5.55;3.38;;;15.70;99.90;;;;;;4955423;28;20026;-79
2024/03/15 10:37:50;;;;;;;6.47;2.88;;;15.90;99.90;;;;;;4984181;28;20030;-80
2024/03/15 10:40:23;;;;;;;3.08;2.53;;;16.10;99.90;;;;;;4973040;28;20034;-79
2024/03/15 10:42:51;;;;;;;8.07;3.45;;;15.90;99.90;;;;;;4979445;28;20487;-79
2024/03/15 10:45:21;;;;;;;10.13;2.85;;;16.10;99.90;;;;;;4966859;28;20035;-79
2024/03/15 10:47:47;;;;;;;9.05;2.97;;;16.20;99.90;;;;;;4965988;28;20034;-80
2024/03/15 10:50:14;;;;;;;2.85;2.00;;;16.30;99.90;;;;;;4970323;28;20034;-79
2024/03/15 10:52:48;;;;;;;4.15;2.05;;;16.30;99.90;;;;;;4982210;28;20113;-79
2024/03/15 10:55:24;;;;;;;5.72;1.90;;;16.50;99.90;;;;;;4967639;28;20031;-79
2024/03/15 10:57:50;;;;;;;13.00;1.65;;;16.20;99.90;;;;;;4974547;28;20755;-78
2024/03/15 11:00:19;;;;;;;2.83;1.58;;;16.50;99.90;;;;;;4987495;28;20034;-79
2024/03/15 11:02:45;;;;;;;5.30;2.47;;;16.30;99.90;;;;;;4966613;28;20037;-80
2024/03/15 11:05:24;;;;;;;6.80;1.50;;;16.20;99.90;;;;;;4962858;28;20030;-78
2024/03/15 11:08:07;;;;;;;9.27;4.00;;;16.10;99.90;;;;;;4977057;28;20496;-79
2024/03/15 11:10:38;;;;;;;3.50;1.70;;;16.20;99.90;;;;;;4953218;28;20061;-79
2024/03/15 11:13:04;;;;;;;1.92;1.38;;;16.20;99.90;;;;;;4996834;28;20026;-79
2024/03/15 11:15:38;;;;;;;7.85;1.92;;;16.20;99.90;;;;;;4962888;28;20034;-80
2024/03/15 11:18:07;;;;;;;2.67;1.42;;;16.40;99.90;;;;;;4966268;28;20031;-79
2024/03/15 11:20:49;;;;;;;4.43;1.30;;;16.50;99.90;;;;;;4978251;28;20061;-79
2024/03/15 11:23:19;;;;;;;0.90;0.88;;;17.00;99.90;;;;;;4970588;28;20372;-79
2024/03/15 11:26:06;;;;;;;1.50;1.17;;;17.10;99.90;;;;;;4966076;28;20049;-79
2024/03/15 11:28:37;;;;;;;2.97;1.45;;;16.90;99.90;;;;;;4955634;28;20034;-79
2024/03/15 11:31:04;;;;;;;3.78;1.63;;;17.10;99.90;;;;;;4958023;28;20414;-79
2024/03/15 11:33:31;;;;;;;2.78;1.00;;;17.40;99.90;;;;;;4980261;28;20087;-79
2024/03/15 11:35:57;;;;;;;2.80;1.08;;;17.60;99.90;;;;;;4954338;28;20046;-79
2024/03/15 11:38:22;;;;;;;2.15;1.00;;;17.60;99.90;;;;;;4949913;28;20027;-79
2024/03/15 11:40:52;;;;;;;0.65;0.55;;;17.40;99.90;;;;;;4968985;28;20520;-79
2024/03/15 11:43:17;;;;;;;3.72;1.15;;;17.10;99.90;;;;;;4979348;28;20080;-79
2024/03/15 11:45:47;;;;;;;2.83;1.30;;;17.30;99.90;;;;;;4956928;28;20045;-79
2024/03/15 11:48:20;;;;;;;2.30;0.60;;;17.20;99.90;;;;;;4983161;28;20041;-79
2024/03/15 11:50:46;;;;;;;4.05;1.33;;;17.60;99.90;;;;;;4954843;28;20041;-79
2024/03/15 11:53:12;;;;;;;4.40;1.30;;;17.60;99.90;;;;;;4986621;28;20441;-79
2024/03/15 11:55:46;;;;;;;5.20;1.15;;;17.70;99.90;;;;;;4993844;28;20050;-79
2024/03/15 11:58:18;;;;;;;3.05;1.02;;;17.40;99.90;;;;;;4993051;28;20044;-79
2024/03/15 12:00:48;;;;;;;3.05;1.23;;;17.60;99.90;;;;;;4985720;28;20036;-79
2024/03/15 12:03:14;;;;;;;2.47;1.08;;;17.90;99.90;;;;;;4983444;28;20081;-78
2024/03/15 12:05:43;;;;;;;7.57;1.48;;;17.80;99.90;;;;;;4975632;28;20668;-77
2024/03/15 12:08:13;;;;;;;3.58;1.50;;;17.90;99.90;;;;;;4970224;28;20553;-78
2024/03/15 12:10:39;;;;;;;1.55;0.93;;;18.20;99.90;;;;;;4963138;28;20095;-78
2024/03/15 12:13:17;;;;;;;1.63;1.00;;;18.40;99.90;;;;;;4969175;28;20061;-78
2024/03/15 12:15:46;;;;;;;2.83;1.08;;;18.20;99.90;;;;;;4976428;28;20146;-78
2024/03/15 12:18:14;;;;;;;2.00;0.90;;;18.10;99.90;;;;;;4953583;28;20030;-78
2024/03/15 12:20:41;;;;;;;0.98;0.80;;;18.30;99.90;;;;;;4976622;28;20030;-78
2024/03/15 12:23:07;;;;;;;2.38;0.95;;;18.40;99.90;;;;;;4991626;28;20049;-78
2024/03/15 12:25:32;;;;;;;1.85;1.15;;;18.50;99.90;;;;;;5006187;28;20204;-78
2024/03/15 12:27:58;;;;;;;2.55;1.13;;;18.40;99.90;;;;;;4965495;28;20038;-79
2024/03/15 12:30:24;;;;;;;4.35;0.75;;;18.30;99.90;;;;;;4983562;28;20026;-78
2024/03/15 12:32:49;;;;;;;2.50;1.02;;;18.30;99.90;;;;;;4966798;28;20058;-79
2024/03/15 12:35:15;;;;;;;5.18;1.00;;;18.40;99.90;;;;;;4957224;28;20049;-78
2024/03/15 12:37:41;;;;;;;1.83;0.90;;;18.50;99.90;;;;;;4981863;28;20049;-78
2024/03/15 12:40:14;;;;;;;1.60;0.75;;;18.50;99.90;;;;;;4981457;28;20515;-78
2024/03/15 12:42:41;;;;;;;1.35;0.90;;;18.40;99.90;;;;;;4968621;28;20062;-78
2024/03/15 12:45:08;;;;;;;2.60;0.68;;;18.40;99.90;;;;;;4983590;28;20408;-78
2024/03/15 12:47:40;;;;;;;2.33;1.02;;;18.40;99.90;;;;;;4969514;28;20030;-79
2024/03/15 12:50:23;;;;;;;1.25;0.98;;;18.40;99.90;;;;;;4983574;28;20042;-78
2024/03/15 12:52:48;;;;;;;2.58;0.93;;;18.40;99.90;;;;;;4953440;28;20031;-78